Dati Storici

Data ora Umidita' aria (%) Temperatura aria (°C) Rad globale (W/m²) Gonioanemometro (°) Tacoanemometro (m/s) Pioggia (mm)
04-11-2012 16:50 97.4 % 13.079 18.348 16.082 2.783 0
04-11-2012 16:40 97.5 % 13.026 17.876 13.85 3.503 0
04-11-2012 16:30 97.6 % 13.022 8.65 171.221 0.708 0
04-11-2012 16:20 97.6 % 12.952 30.979 341.092 1.155 0
04-11-2012 16:10 97.8 % 12.848 27.408 0.778 2.723 0
04-11-2012 16:00 97.8 % 12.801 32.865 0.901 2.892 0
04-11-2012 15:50 97.9 % 12.766 27.356 1.031 5.225 0
04-11-2012 15:40 97.8 % 12.778 26.527 10.368 3.828 0
04-11-2012 15:30 97.8 % 12.779 22.054 19.056 3.815 0
04-11-2012 15:20 97.8 % 12.783 19.725 19.928 3.814 1
04-11-2012 15:10 97.7 % 12.79 29.806 3.187 3.086 1
04-11-2012 15:00 97.7 % 12.784 33.234 49.201 2.431 0
04-11-2012 14:50 97.7 % 12.804 31.234 26.116 2.727 0
04-11-2012 14:40 97.7 % 12.806 34.481 20.453 3.229 0
04-11-2012 14:30 97.6 % 12.784 40.152 11.654 3.731 1
04-11-2012 14:20 97.6 % 12.806 26.233 353.222 1.729 0
04-11-2012 14:10 97.6 % 12.79 29.64 23.618 1.946 0
04-11-2012 14:00 97.5 % 12.767 45.555 25.144 2.366 0
04-11-2012 13:50 97.4 % 12.722 66.792 12.617 1.857 0
04-11-2012 13:40 97.4 % 12.635 43.211 21.284 2.491 0

I dati sono presentati in modo automatico a scopo informativo. In seguito a verifica i dati possono subire modifiche o essere invalidati e non riportati negli archivi definitivi.